Lithia, FL (33547)

7:42 PM EDT on October 31, 2014 (GMT -0400)
Fishhawk Trails (KFLLITHI5) | Change Station
CLOSE
Current Station
Personal Weather Station
Location: Lithia, FL
Elevation: 104 ft
Nearby Weather Stations
Active Advisory: Lake Wind Advisory

Elev 104 ft 27.86 °N, 82.19 °W | Updated 12 minutes ago

Clear
Clear
61.1 °F
Feels Like 61.1 °F
N
0.0
Wind Variable Wind from West
Gusts 0.0 mph

Today
High -- | Low -- °F
--% Chance of Precip.
Yesterday
High -- | Low -- °F
Precip. -- in
7:38 AM 6:45 PM
First Quarter, 60% visible
Pressure 29.90 in
Visibility 10.0 miles
Clouds Clear
Dew Point 52 °F
Humidity 72%
Rainfall 0.00 in
Snow Depth Not available.
UV 0 out of 12
Pollen 4.90 out of 12
Air Quality Not available.
Flu Activity Not available.
METAR KPCM 312335Z AUTO 30004KT 10SM CLR 19/09 A2990 RMK AO2

More Conditions Fewer Conditions

Pressure 29.90 in
Visibility 10.0 miles
Clouds Clear
Dew Point 52 °F
Humidity 72%
Rainfall 0.00 in
Snow Depth Not available.
UV 0 out of 12
Pollen 4.90 out of 12
Air Quality Not available.
Flu Activity Not available.
METAR KPCM 312335Z AUTO 30004KT 10SM CLR 19/09 A2990 RMK AO2

More Conditions Fewer Conditions

10-Day Weather Forecast

Almanac

Astronomy

Oct. 31, 2014 Rise Set
Actual Time
Civil Twilight
Nautical Twilight
Astronomical Twilight
Moon
Length of Visible Light
Length of Day
Tomorrow will be .
, % of the Moon is Illuminated

Today's Extremes

State Highs State Lows

Community

WunderPhotos

Upload Photos

1,766,786 photos uploaded!

WunderBlogs® & News

Nearby

Air Quality

  Air Quality AQ Index Pollutant
Not available.

Snow Depth

Station Depth Elevation

Earthquake Activity

City Distance Mag. Time & Date
Minimum magnitude displayed is 2.5.

Coastal Water Temperatures

Place Temperature

Nearby Weather Stations